Time;durP1;ratioP1;P1;durP2;ratioP2;P2;SDS_P1;SDS_P2;PMS_P1;PMS_P2;Temp;Humidity;BMP_temperature;BMP_pressure;BME280_temperature;BME280_humidity;BME280_pressure;Samples;Min_cycle;Max_cycle;Signal;HPM_P1;HPM_P2
2022/10/12 00:01:20;;;;;;;6.73;5.10;;;12.60;99.90;;;;;;5028085;28;20978;-80
2022/10/12 00:03:46;;;;;;;5.80;4.97;;;12.60;99.90;;;;;;5028492;28;20952;-80
2022/10/12 00:06:16;;;;;;;7.40;5.60;;;12.50;99.90;;;;;;5028784;28;21065;-79
2022/10/12 00:08:44;;;;;;;8.70;6.73;;;12.60;99.90;;;;;;5028195;28;20615;-81
2022/10/12 00:11:13;;;;;;;11.03;4.97;;;12.40;99.90;;;;;;5028581;28;20631;-80
2022/10/12 00:13:42;;;;;;;8.10;5.60;;;12.50;99.90;;;;;;5027867;28;20969;-80
2022/10/12 00:16:11;;;;;;;5.17;4.67;;;12.40;99.90;;;;;;5028223;28;20662;-80
2022/10/12 00:18:38;;;;;;;5.73;5.23;;;12.30;99.90;;;;;;5027910;28;20640;-81
2022/10/12 00:21:07;;;;;;;6.83;5.90;;;12.30;99.90;;;;;;5027200;28;21221;-80
2022/10/12 00:23:35;;;;;;;5.60;4.97;;;12.40;99.90;;;;;;5028617;28;20630;-81
2022/10/12 00:26:04;;;;;;;7.53;6.70;;;12.40;99.90;;;;;;5028743;28;20615;-80
2022/10/12 00:28:31;;;;;;;6.93;5.20;;;12.30;99.90;;;;;;5027731;28;20608;-81
2022/10/12 00:30:59;;;;;;;4.40;3.80;;;12.40;99.90;;;;;;5028146;28;20725;-80
2022/10/12 00:33:27;;;;;;;6.40;4.83;;;12.30;99.90;;;;;;5028393;28;20726;-80
2022/10/12 00:35:54;;;;;;;6.13;5.43;;;12.30;99.90;;;;;;5028061;28;20696;-80
2022/10/12 00:38:21;;;;;;;8.50;4.80;;;12.30;99.90;;;;;;5027607;28;20619;-81
2022/10/12 00:40:48;;;;;;;6.93;5.43;;;12.30;99.90;;;;;;5027104;28;20650;-81
2022/10/12 00:43:28;;;;;;;6.13;5.27;;;12.30;99.90;;;;;;5027625;28;20615;-80
2022/10/12 00:45:56;;;;;;;5.93;4.70;;;12.30;99.90;;;;;;5027889;28;20609;-81
2022/10/12 00:48:25;;;;;;;6.10;4.40;;;12.20;99.90;;;;;;5027572;28;20618;-80
2022/10/12 00:50:52;;;;;;;6.77;4.77;;;12.40;99.90;;;;;;5027259;28;20635;-82
2022/10/12 00:53:23;;;;;;;5.97;4.90;;;12.20;99.90;;;;;;5027744;28;20913;-80
2022/10/12 00:55:54;;;;;;;5.87;5.10;;;12.30;99.90;;;;;;5027804;28;20657;-81
2022/10/12 00:58:21;;;;;;;6.37;5.40;;;12.20;99.90;;;;;;5027864;28;20954;-80
2022/10/12 01:00:49;;;;;;;5.57;4.97;;;12.20;99.90;;;;;;5027364;28;20630;-81
2022/10/12 01:03:21;;;;;;;6.37;5.23;;;12.20;99.90;;;;;;5023996;28;20611;-80
2022/10/12 01:05:49;;;;;;;6.80;5.43;;;12.10;99.90;;;;;;5006691;28;20735;-81
2022/10/12 01:08:16;;;;;;;7.03;5.10;;;12.10;99.90;;;;;;5007697;28;20631;-80
2022/10/12 01:10:43;;;;;;;7.80;5.40;;;12.10;99.90;;;;;;5008151;28;20627;-81
2022/10/12 01:13:11;;;;;;;6.73;6.03;;;12.10;99.90;;;;;;5007580;28;20635;-80
2022/10/12 01:15:44;;;;;;;5.13;4.63;;;12.00;99.90;;;;;;5009866;28;20828;-80
2022/10/12 01:18:17;;;;;;;6.60;4.70;;;11.90;99.90;;;;;;5026740;28;21015;-81
2022/10/12 01:21:03;;;;;;;5.97;4.47;;;11.90;99.90;;;;;;5026629;28;20623;-80
2022/10/12 01:24:06;;;;;;;9.63;5.13;;;11.90;99.90;;;;;;5025666;28;20639;-79
2022/10/12 01:27:05;;;;;;;10.60;6.53;;;11.90;99.90;;;;;;5027347;28;20669;-81
2022/10/12 01:29:58;;;;;;;6.77;5.20;;;11.90;99.90;;;;;;5027470;28;20745;-80
2022/10/12 01:32:31;;;;;;;7.17;5.60;;;11.90;99.90;;;;;;5027254;28;20721;-81
2022/10/12 01:35:02;;;;;;;4.07;3.73;;;11.80;99.90;;;;;;5027023;28;20619;-80
2022/10/12 01:37:41;;;;;;;6.07;5.40;;;11.80;99.90;;;;;;5026973;28;20717;-82
2022/10/12 01:40:12;;;;;;;7.93;4.97;;;11.80;99.90;;;;;;5027327;28;20673;-80
2022/10/12 01:42:41;;;;;;;5.53;5.00;;;11.90;99.90;;;;;;5027538;28;20599;-81
2022/10/12 01:45:10;;;;;;;5.67;5.07;;;11.80;99.90;;;;;;5027190;28;20610;-81
2022/10/12 01:47:40;;;;;;;7.60;4.73;;;11.80;99.90;;;;;;5026258;28;20607;-80
2022/10/12 01:50:10;;;;;;;6.60;5.73;;;11.80;99.90;;;;;;5027561;28;21052;-80
2022/10/12 01:52:45;;;;;;;6.70;5.43;;;11.80;99.90;;;;;;5027509;28;20675;-82
2022/10/12 01:55:22;;;;;;;5.33;4.63;;;11.80;99.90;;;;;;5029387;28;21016;-80
2022/10/12 01:58:07;;;;;;;9.00;6.63;;;11.70;99.90;;;;;;5030231;28;20753;-80
2022/10/12 02:00:42;;;;;;;5.23;4.60;;;11.60;99.90;;;;;;5030807;28;21200;-80
2022/10/12 02:03:18;;;;;;;11.33;6.20;;;11.60;99.90;;;;;;5028261;28;20607;-80
2022/10/12 02:05:50;;;;;;;5.23;4.60;;;11.60;99.90;;;;;;5011092;28;20611;-80
2022/10/12 02:08:23;;;;;;;11.87;5.10;;;11.60;99.90;;;;;;5010131;28;20759;-81
2022/10/12 02:10:55;;;;;;;8.13;5.33;;;11.60;99.90;;;;;;5011046;28;20616;-81
2022/10/12 02:13:26;;;;;;;6.70;4.73;;;11.50;99.90;;;;;;5011283;28;20712;-80
2022/10/12 02:15:54;;;;;;;5.53;4.93;;;11.50;99.90;;;;;;5014465;28;20658;-80
2022/10/12 02:18:24;;;;;;;7.53;5.77;;;11.40;99.90;;;;;;5029875;28;20607;-79
2022/10/12 02:20:53;;;;;;;7.80;4.80;;;11.30;99.90;;;;;;5028486;28;20611;-78
2022/10/12 02:23:23;;;;;;;6.37;5.80;;;11.30;99.90;;;;;;5030367;28;20626;-78
2022/10/12 02:25:51;;;;;;;7.57;4.90;;;11.30;99.90;;;;;;5030312;28;20649;-78
2022/10/12 02:28:22;;;;;;;9.30;5.53;;;11.30;99.90;;;;;;5029606;28;20611;-80
2022/10/12 02:30:54;;;;;;;6.57;5.50;;;11.20;99.90;;;;;;5030230;28;21203;-80
2022/10/12 02:33:28;;;;;;;6.50;4.90;;;11.20;99.90;;;;;;5029528;28;20611;-80
2022/10/12 02:36:02;;;;;;;4.07;3.70;;;11.30;99.90;;;;;;5030318;28;20623;-79
2022/10/12 02:38:34;;;;;;;3.37;3.07;;;11.30;99.90;;;;;;5029822;28;20649;-81
2022/10/12 02:41:04;;;;;;;5.43;4.10;;;11.30;99.90;;;;;;5029996;28;20641;-79
2022/10/12 02:43:37;;;;;;;5.50;5.00;;;11.20;99.90;;;;;;5030055;28;20633;-78
2022/10/12 02:46:07;;;;;;;4.07;3.67;;;11.20;99.90;;;;;;5029845;28;20855;-78
2022/10/12 02:48:37;;;;;;;3.07;2.80;;;11.10;99.90;;;;;;5028897;28;20718;-79
2022/10/12 02:51:07;;;;;;;6.30;4.37;;;11.10;99.90;;;;;;5029877;28;21099;-79
2022/10/12 02:53:34;;;;;;;4.10;3.30;;;11.00;99.90;;;;;;5029675;28;20621;-79
2022/10/12 02:56:03;;;;;;;4.57;4.17;;;10.90;99.90;;;;;;5029662;28;21230;-79
2022/10/12 02:58:30;;;;;;;6.40;3.90;;;10.90;99.90;;;;;;5029071;28;20631;-79
2022/10/12 03:00:57;;;;;;;4.40;3.53;;;10.90;99.90;;;;;;5029615;28;20611;-79
2022/10/12 03:03:24;;;;;;;6.60;4.33;;;11.00;99.90;;;;;;5030530;28;20858;-80
2022/10/12 03:05:52;;;;;;;4.37;3.80;;;10.90;99.90;;;;;;5028935;28;20641;-78
2022/10/12 03:08:19;;;;;;;4.30;3.93;;;10.90;99.90;;;;;;5028805;28;20619;-79
2022/10/12 03:10:46;;;;;;;6.43;4.33;;;10.80;99.90;;;;;;5029236;28;20614;-79
2022/10/12 03:13:13;;;;;;;6.63;4.83;;;10.90;99.90;;;;;;5029401;28;20725;-79
2022/10/12 03:15:39;;;;;;;4.60;4.17;;;10.90;99.90;;;;;;5029274;28;20625;-79
2022/10/12 03:18:06;;;;;;;7.27;5.23;;;10.90;99.90;;;;;;5028520;28;21059;-80
2022/10/12 03:20:33;;;;;;;4.93;4.47;;;10.90;99.90;;;;;;5028297;28;21188;-79
2022/10/12 03:23:01;;;;;;;5.03;4.53;;;10.90;99.90;;;;;;5029220;28;21048;-81
2022/10/12 03:25:28;;;;;;;3.87;3.50;;;11.00;99.90;;;;;;5028560;28;20626;-78
2022/10/12 03:27:55;;;;;;;5.70;3.27;;;11.10;99.90;;;;;;5028975;28;20634;-79
2022/10/12 03:30:22;;;;;;;3.97;2.87;;;11.10;99.90;;;;;;5028937;28;20737;-79
2022/10/12 03:32:49;;;;;;;6.23;4.90;;;11.10;99.90;;;;;;5029846;28;20714;-80
2022/10/12 03:35:16;;;;;;;4.60;4.17;;;11.20;99.90;;;;;;5028457;28;20642;-81
2022/10/12 03:37:43;;;;;;;5.10;4.53;;;11.20;99.90;;;;;;5028655;28;20655;-81
2022/10/12 03:40:12;;;;;;;5.57;4.63;;;11.30;99.90;;;;;;5028550;28;20965;-81
2022/10/12 03:42:39;;;;;;;4.80;3.77;;;11.30;99.90;;;;;;5029088;28;21173;-80
2022/10/12 03:45:07;;;;;;;5.03;4.57;;;11.30;99.90;;;;;;5029547;28;20609;-80
2022/10/12 03:47:34;;;;;;;14.43;4.97;;;11.30;99.90;;;;;;5028712;28;20627;-81
2022/10/12 03:50:00;;;;;;;5.27;3.67;;;11.30;99.90;;;;;;5028857;28;20615;-81
2022/10/12 03:52:27;;;;;;;5.80;5.30;;;11.40;99.90;;;;;;5028641;28;21058;-82
2022/10/12 03:54:54;;;;;;;4.53;3.53;;;11.50;99.90;;;;;;5029258;28;20619;-81
2022/10/12 03:57:22;;;;;;;6.73;4.60;;;11.50;99.90;;;;;;5028298;28;20659;-81
2022/10/12 03:59:49;;;;;;;5.33;4.13;;;11.50;99.90;;;;;;5029054;28;20623;-81
2022/10/12 04:02:16;;;;;;;6.33;4.70;;;11.50;99.90;;;;;;5028654;28;20626;-81
2022/10/12 04:04:42;;;;;;;5.50;4.37;;;11.50;99.90;;;;;;5013371;28;20620;-81
2022/10/12 04:07:09;;;;;;;6.90;4.70;;;11.50;99.90;;;;;;5007771;28;21120;-81
2022/10/12 04:09:36;;;;;;;5.50;5.00;;;11.60;99.90;;;;;;5008456;28;21011;-81
2022/10/12 04:12:03;;;;;;;5.50;4.77;;;11.60;99.90;;;;;;5007532;28;20634;-81
2022/10/12 04:14:31;;;;;;;7.03;4.53;;;11.50;99.90;;;;;;5008224;28;20993;-82
2022/10/12 04:16:59;;;;;;;6.63;4.80;;;11.60;99.90;;;;;;5020291;28;20723;-81
2022/10/12 04:19:26;;;;;;;7.77;5.00;;;11.50;99.90;;;;;;5026883;28;20611;-82
2022/10/12 04:21:52;;;;;;;8.33;5.70;;;11.50;99.90;;;;;;5027322;28;20626;-80
2022/10/12 04:24:19;;;;;;;6.87;4.80;;;11.60;99.90;;;;;;5027936;28;20631;-81
2022/10/12 04:26:46;;;;;;;8.00;5.03;;;11.60;99.90;;;;;;5027711;28;20726;-81
2022/10/12 04:29:13;;;;;;;5.80;4.40;;;11.60;99.90;;;;;;5028271;28;20629;-81
2022/10/12 04:31:42;;;;;;;5.57;5.00;;;11.70;99.90;;;;;;5028534;28;20633;-81
2022/10/12 04:34:09;;;;;;;5.63;5.07;;;11.70;99.90;;;;;;5027642;28;20654;-82
2022/10/12 04:36:36;;;;;;;4.60;4.20;;;11.70;99.90;;;;;;5028050;28;20623;-81
2022/10/12 04:39:03;;;;;;;5.37;4.97;;;11.70;99.90;;;;;;5027675;28;20618;-81
2022/10/12 04:41:31;;;;;;;4.97;4.47;;;11.70;99.90;;;;;;5028383;28;20634;-82
2022/10/12 04:43:57;;;;;;;6.00;4.50;;;11.70;99.90;;;;;;5028480;28;20654;-80
2022/10/12 04:46:24;;;;;;;4.70;4.30;;;11.90;99.90;;;;;;5028123;28;20661;-80
2022/10/12 04:48:52;;;;;;;4.37;3.97;;;11.70;99.90;;;;;;5026973;28;20625;-81
2022/10/12 04:51:19;;;;;;;4.97;4.47;;;11.80;99.90;;;;;;5027572;28;20733;-82
2022/10/12 04:53:46;;;;;;;7.57;4.13;;;12.00;99.90;;;;;;5028043;28;21189;-82
2022/10/12 04:56:13;;;;;;;7.93;4.47;;;11.80;99.90;;;;;;5027753;28;20635;-81
2022/10/12 04:58:40;;;;;;;5.63;5.07;;;11.80;99.90;;;;;;5027173;28;20654;-81
2022/10/12 05:01:07;;;;;;;7.13;6.20;;;11.80;99.90;;;;;;5027418;28;20726;-81
2022/10/12 05:03:34;;;;;;;5.53;4.00;;;11.80;99.90;;;;;;5027869;28;20640;-81
2022/10/12 05:06:02;;;;;;;6.80;4.87;;;11.80;99.90;;;;;;5027555;28;20645;-81
2022/10/12 05:08:29;;;;;;;5.03;4.60;;;11.90;99.90;;;;;;5027055;28;20675;-81
2022/10/12 05:10:58;;;;;;;5.93;4.70;;;11.90;99.90;;;;;;5027790;28;20611;-81
2022/10/12 05:13:25;;;;;;;8.20;5.63;;;11.90;99.90;;;;;;5027816;28;20627;-81
2022/10/12 05:15:52;;;;;;;8.30;6.70;;;;;;;;;;5027077;28;20631;-81
2022/10/12 05:18:19;;;;;;;11.93;5.47;;;11.90;99.90;;;;;;5027183;28;20665;-81
2022/10/12 05:20:46;;;;;;;7.53;6.30;;;11.90;99.90;;;;;;5026968;28;21082;-81
2022/10/12 05:23:14;;;;;;;8.03;5.63;;;11.90;99.90;;;;;;5027440;28;20630;-81
2022/10/12 05:25:41;;;;;;;5.50;4.90;;;11.90;99.90;;;;;;5027448;28;21204;-80
2022/10/12 05:28:08;;;;;;;9.70;6.87;;;11.90;99.90;;;;;;5026926;28;20631;-81
2022/10/12 05:30:35;;;;;;;5.27;4.67;;;12.00;99.90;;;;;;5030276;28;20718;-81
2022/10/12 05:33:01;;;;;;;6.93;6.10;;;12.00;99.90;;;;;;5031594;28;20630;-81
2022/10/12 05:35:28;;;;;;;7.13;4.80;;;12.00;99.90;;;;;;5031456;28;20676;-81
2022/10/12 05:37:55;;;;;;;8.20;6.00;;;12.10;99.90;;;;;;5030743;28;20757;-81
2022/10/12 05:40:23;;;;;;;11.27;6.70;;;12.10;99.90;;;;;;5031306;28;20672;-81
2022/10/12 05:42:50;;;;;;;8.87;7.73;;;12.10;99.90;;;;;;5031006;28;20978;-82
2022/10/12 05:45:17;;;;;;;9.33;5.70;;;12.10;99.90;;;;;;5031404;28;20623;-81
2022/10/12 05:47:44;;;;;;;7.73;6.23;;;12.10;99.90;;;;;;5030647;28;21175;-82
2022/10/12 05:50:11;;;;;;;13.70;5.20;;;12.10;99.90;;;;;;5031450;28;20619;-81
2022/10/12 05:52:38;;;;;;;10.03;6.97;;;12.10;99.90;;;;;;5031600;28;20710;-80
2022/10/12 05:55:05;;;;;;;10.57;7.50;;;12.20;99.90;;;;;;5022147;28;20659;-81
2022/10/12 05:57:33;;;;;;;9.63;8.13;;;12.20;99.90;;;;;;5023678;28;20690;-81
2022/10/12 06:00:00;;;;;;;10.53;7.50;;;12.20;99.90;;;;;;5028679;28;21046;-81
2022/10/12 06:02:27;;;;;;;11.87;8.00;;;12.20;99.90;;;;;;5011368;28;20619;-82
2022/10/12 06:04:54;;;;;;;7.80;6.50;;;12.20;99.90;;;;;;5026973;28;20662;-81
2022/10/12 06:07:20;;;;;;;16.40;7.43;;;12.40;99.90;;;;;;5030104;28;20623;-81
2022/10/12 06:09:47;;;;;;;11.90;7.43;;;12.20;99.90;;;;;;5030260;28;20633;-81
2022/10/12 06:12:15;;;;;;;11.23;7.70;;;12.30;99.90;;;;;;5030302;28;20631;-81
2022/10/12 06:14:43;;;;;;;7.67;6.87;;;12.30;99.90;;;;;;5030713;28;20623;-81
2022/10/12 06:17:10;;;;;;;11.67;7.17;;;12.30;99.90;;;;;;5030147;28;20650;-81
2022/10/12 06:19:37;;;;;;;11.10;7.27;;;12.30;99.90;;;;;;5038648;28;20630;-81
2022/10/12 06:22:04;;;;;;;10.10;7.60;;;12.40;99.90;;;;;;5028352;28;20639;-81
2022/10/12 06:24:31;;;;;;;7.10;6.00;;;12.40;99.90;;;;;;5024396;28;21102;-82
2022/10/12 06:26:58;;;;;;;10.17;7.00;;;12.30;99.90;;;;;;5013387;28;20725;-81
2022/10/12 06:29:25;;;;;;;6.83;6.13;;;12.40;99.90;;;;;;5029828;28;20999;-82
2022/10/12 06:31:54;;;;;;;10.80;6.20;;;12.40;99.90;;;;;;5029519;28;20622;-81
2022/10/12 06:34:20;;;;;;;11.10;8.00;;;12.50;99.90;;;;;;5030312;28;20631;-81
2022/10/12 06:36:47;;;;;;;9.70;6.97;;;12.50;99.90;;;;;;5029291;28;20630;-82
2022/10/12 06:39:14;;;;;;;9.60;7.07;;;12.50;99.90;;;;;;5029734;28;20654;-82
2022/10/12 06:41:41;;;;;;;9.40;7.27;;;12.50;99.90;;;;;;5029073;28;20746;-80
2022/10/12 06:44:08;;;;;;;8.93;5.60;;;12.60;99.90;;;;;;5030279;28;21024;-82
2022/10/12 06:46:35;;;;;;;11.30;8.40;;;12.60;99.90;;;;;;5023399;28;21224;-81
2022/10/12 06:49:03;;;;;;;8.13;7.30;;;12.60;99.90;;;;;;5022068;28;20659;-81
2022/10/12 06:51:30;;;;;;;8.60;6.50;;;12.70;99.90;;;;;;5029829;28;20626;-80
2022/10/12 06:53:57;;;;;;;15.03;7.67;;;12.70;99.90;;;;;;5029553;28;21014;-82
2022/10/12 06:56:24;;;;;;;8.87;4.83;;;12.60;99.90;;;;;;5029935;28;20633;-81
2022/10/12 06:58:54;;;;;;;11.00;7.33;;;12.70;99.90;;;;;;5028523;28;21232;-82
2022/10/12 07:01:21;;;;;;;13.30;7.93;;;12.60;99.90;;;;;;5030126;28;20633;-81
2022/10/12 07:03:48;;;;;;;9.73;7.47;;;12.70;99.90;;;;;;5029672;28;20634;-81
2022/10/12 07:06:17;;;;;;;9.20;7.20;;;12.60;99.90;;;;;;5029013;28;20722;-80
2022/10/12 07:08:44;;;;;;;8.20;5.57;;;12.70;99.90;;;;;;5029307;28;20650;-81
2022/10/12 07:11:12;;;;;;;11.60;7.80;;;12.60;99.90;;;;;;5029646;28;21202;-81
2022/10/12 07:13:39;;;;;;;10.50;8.27;;;12.60;99.90;;;;;;5029477;28;20621;-81
2022/10/12 07:16:06;;;;;;;8.87;6.83;;;12.70;99.90;;;;;;5029454;28;20714;-81
2022/10/12 07:18:33;;;;;;;11.87;7.33;;;12.70;99.90;;;;;;5029122;28;20753;-82
2022/10/12 07:21:01;;;;;;;10.07;8.00;;;12.70;99.90;;;;;;5028448;28;20619;-82
2022/10/12 07:23:31;;;;;;;8.63;6.53;;;12.80;99.90;;;;;;5028806;28;20802;-81
2022/10/12 07:25:58;;;;;;;10.20;6.03;;;12.80;99.90;;;;;;5022491;28;20631;-81
2022/10/12 07:28:25;;;;;;;8.07;6.73;;;12.80;99.90;;;;;;5009282;28;20628;-80
2022/10/12 07:30:52;;;;;;;11.90;6.30;;;12.80;99.90;;;;;;5020194;28;20619;-81
2022/10/12 07:33:19;;;;;;;8.80;7.90;;;12.80;99.90;;;;;;5029125;28;20618;-82
2022/10/12 07:35:54;;;;;;;10.40;6.97;;;12.90;99.90;;;;;;5028771;28;20634;-82
2022/10/12 07:38:21;;;;;;;7.63;6.23;;;12.90;99.90;;;;;;5028584;28;20676;-80
2022/10/12 07:40:49;;;;;;;7.33;6.47;;;12.90;99.90;;;;;;5022726;28;21114;-81
2022/10/12 07:43:15;;;;;;;7.87;6.60;;;12.90;99.90;;;;;;5029030;28;20639;-81
2022/10/12 07:45:43;;;;;;;11.93;7.60;;;13.00;99.90;;;;;;5028737;28;21504;-81
2022/10/12 07:48:10;;;;;;;8.67;6.87;;;13.00;99.90;;;;;;5027774;28;20738;-81
2022/10/12 07:50:37;;;;;;;9.07;6.23;;;13.00;99.90;;;;;;5029113;28;20730;-81
2022/10/12 07:53:04;;;;;;;7.93;6.27;;;13.00;99.90;;;;;;5028510;28;20681;-81
2022/10/12 07:55:31;;;;;;;9.87;8.60;;;13.10;99.90;;;;;;5028479;28;20638;-81
2022/10/12 07:58:02;;;;;;;7.87;6.83;;;12.90;99.90;;;;;;5026475;28;20655;-81
2022/10/12 08:00:30;;;;;;;7.07;5.10;;;13.10;99.90;;;;;;5012825;28;21012;-81
2022/10/12 08:02:58;;;;;;;10.00;6.60;;;13.20;99.90;;;;;;5028347;28;21364;-80
2022/10/12 08:05:25;;;;;;;7.93;6.57;;;13.20;99.90;;;;;;5028316;28;20627;-81
2022/10/12 08:07:52;;;;;;;12.40;7.37;;;13.20;99.90;;;;;;5027486;28;21085;-81
2022/10/12 08:10:19;;;;;;;12.70;7.83;;;13.20;99.90;;;;;;5028709;28;20688;-81
2022/10/12 08:12:46;;;;;;;9.77;6.50;;;13.10;99.90;;;;;;5018333;28;20632;-82
2022/10/12 08:15:15;;;;;;;7.47;6.67;;;13.30;99.90;;;;;;5028379;28;20630;-81
2022/10/12 08:17:41;;;;;;;7.33;6.37;;;13.30;99.90;;;;;;5027928;28;20630;-81
2022/10/12 08:20:09;;;;;;;10.00;6.10;;;13.40;99.90;;;;;;5028833;28;20620;-81
2022/10/12 08:22:36;;;;;;;9.90;6.30;;;13.40;99.90;;;;;;5013747;28;20628;-82
2022/10/12 08:25:03;;;;;;;8.50;5.70;;;13.50;99.90;;;;;;5026838;28;20753;-82
2022/10/12 08:27:31;;;;;;;8.30;6.13;;;13.40;99.90;;;;;;5027216;28;20726;-81
2022/10/12 08:29:57;;;;;;;8.63;5.90;;;13.40;99.90;;;;;;5028460;28;20618;-81
2022/10/12 08:32:26;;;;;;;6.03;5.27;;;13.50;99.90;;;;;;5028491;28;20630;-82
2022/10/12 08:34:52;;;;;;;8.03;5.70;;;13.50;99.90;;;;;;5028042;28;20684;-80
2022/10/12 08:37:19;;;;;;;11.30;6.90;;;13.50;99.90;;;;;;5027752;28;20623;-81
2022/10/12 08:39:46;;;;;;;8.20;6.60;;;13.60;99.90;;;;;;5027506;28;20659;-81
2022/10/12 08:42:28;;;;;;;7.87;7.17;;;13.60;99.90;;;;;;5021225;28;20977;-81
2022/10/12 08:45:24;;;;;;;9.50;6.97;;;13.60;99.90;;;;;;5008674;28;20616;-81
2022/10/12 08:47:57;;;;;;;9.70;6.93;;;13.60;99.90;;;;;;5014872;28;20670;-81
2022/10/12 08:50:29;;;;;;;7.23;5.43;;;13.70;99.90;;;;;;5027382;28;20627;-80
2022/10/12 08:53:01;;;;;;;7.40;5.90;;;13.70;99.90;;;;;;5028146;28;20626;-81
2022/10/12 08:55:35;;;;;;;5.93;5.00;;;13.70;99.90;;;;;;5027222;28;20652;-82
2022/10/12 08:58:03;;;;;;;7.30;5.70;;;13.70;99.90;;;;;;5025360;28;20653;-81
2022/10/12 09:00:33;;;;;;;7.43;6.73;;;13.80;99.90;;;;;;5007848;28;20722;-83
2022/10/12 09:03:13;;;;;;;11.67;9.20;;;13.80;99.90;;;;;;5010963;28;20710;-81
2022/10/12 09:05:45;;;;;;;9.83;8.80;;;13.80;99.90;;;;;;5033002;28;20630;-82
2022/10/12 09:08:25;;;;;;;7.30;6.30;;;13.90;99.90;;;;;;5034297;28;20626;-81
2022/10/12 09:11:00;;;;;;;7.40;5.20;;;13.80;99.90;;;;;;5034370;28;20598;-81
2022/10/12 09:13:42;;;;;;;6.13;4.43;;;13.90;99.90;;;;;;5034060;28;20629;-81
2022/10/12 09:16:20;;;;;;;7.03;5.87;;;13.90;99.90;;;;;;5034266;28;20615;-81
2022/10/12 09:18:56;;;;;;;9.03;5.70;;;14.00;99.90;;;;;;5034265;28;21044;-82
2022/10/12 09:21:25;;;;;;;6.90;4.67;;;14.00;99.90;;;;;;5033040;28;20696;-82
2022/10/12 09:23:55;;;;;;;4.87;4.37;;;14.00;99.90;;;;;;5026051;28;20734;-81
2022/10/12 09:26:32;;;;;;;10.53;6.33;;;14.00;99.90;;;;;;5034557;28;20626;-80
2022/10/12 09:28:59;;;;;;;8.80;6.80;;;14.00;99.90;;;;;;5033205;28;20718;-81
2022/10/12 09:31:51;;;;;;;7.50;5.43;;;14.00;99.90;;;;;;5034328;28;20614;-80
2022/10/12 09:34:20;;;;;;;9.87;7.50;;;14.00;99.90;;;;;;5051249;28;20668;-81
2022/10/12 09:36:47;;;;;;;6.57;5.57;;;14.10;99.90;;;;;;5042540;28;20757;-80
2022/10/12 09:39:18;;;;;;;7.50;5.37;;;14.10;99.90;;;;;;5033940;28;20666;-80
2022/10/12 09:41:47;;;;;;;12.13;4.93;;;14.10;99.90;;;;;;5033822;28;20645;-81
2022/10/12 09:44:25;;;;;;;9.83;5.07;;;14.10;99.90;;;;;;5033806;28;20627;-80
2022/10/12 09:46:56;;;;;;;8.10;4.90;;;14.10;99.90;;;;;;5033879;28;21037;-80
2022/10/12 09:49:41;;;;;;;5.63;5.10;;;14.00;99.90;;;;;;5033964;28;21185;-81
2022/10/12 09:52:09;;;;;;;13.70;5.63;;;14.10;99.90;;;;;;5034154;28;20676;-81
2022/10/12 09:54:39;;;;;;;7.10;4.70;;;13.60;99.90;;;;;;5033894;28;20633;-80
2022/10/12 09:57:07;;;;;;;6.80;5.07;;;14.00;99.90;;;;;;5032875;28;21173;-81
2022/10/12 09:59:38;;;;;;;7.33;4.60;;;14.10;99.90;;;;;;5033710;28;20665;-81
2022/10/12 10:02:14;;;;;;;6.00;4.60;;;14.10;99.90;;;;;;5034085;28;21165;-81
2022/10/12 10:04:44;;;;;;;6.13;5.07;;;14.10;99.90;;;;;;5025969;28;20666;-82
2022/10/12 10:07:22;;;;;;;5.53;3.50;;;14.20;99.90;;;;;;5032999;28;20721;-81
2022/10/12 10:10:13;;;;;;;8.23;4.93;;;14.20;99.90;;;;;;5033850;28;20664;-81
2022/10/12 10:12:47;;;;;;;6.50;5.40;;;14.20;99.90;;;;;;5032958;28;20622;-82
2022/10/12 10:15:21;;;;;;;5.77;5.13;;;14.30;99.90;;;;;;5032746;28;20864;-82
2022/10/12 10:17:52;;;;;;;5.77;4.60;;;14.30;99.90;;;;;;5029778;28;20627;-82
2022/10/12 10:20:33;;;;;;;11.30;6.47;;;14.60;99.90;;;;;;5029853;28;21236;-81
2022/10/12 10:23:02;;;;;;;7.10;5.30;;;14.30;99.90;;;;;;5030579;28;20985;-80
2022/10/12 10:25:29;;;;;;;6.47;4.10;;;14.40;99.90;;;;;;5031063;28;20633;-82
2022/10/12 10:28:19;;;;;;;4.30;3.87;;;14.40;99.90;;;;;;5029969;28;20627;-80
2022/10/12 10:30:57;;;;;;;7.97;5.33;;;14.50;99.90;;;;;;5030480;28;20627;-81
2022/10/12 10:33:24;;;;;;;4.90;4.03;;;14.50;99.90;;;;;;5030878;28;20626;-81
2022/10/12 10:36:15;;;;;;;5.43;3.87;;;14.40;99.90;;;;;;5030505;28;20734;-81
2022/10/12 10:38:54;;;;;;;5.23;3.97;;;14.50;99.90;;;;;;5029197;28;20621;-82
2022/10/12 10:41:25;;;;;;;5.60;5.03;;;14.50;99.90;;;;;;5030142;28;21161;-82
2022/10/12 10:43:52;;;;;;;8.33;5.47;;;14.50;99.90;;;;;;5030189;28;20643;-82
2022/10/12 10:46:24;;;;;;;7.13;6.43;;;14.60;99.90;;;;;;5030445;28;20618;-80
2022/10/12 10:48:55;;;;;;;7.90;5.97;;;14.60;99.90;;;;;;5029704;28;20621;-81
2022/10/12 10:51:40;;;;;;;11.33;6.27;;;14.60;99.90;;;;;;5030555;28;20614;-81
2022/10/12 10:54:14;;;;;;;8.47;5.47;;;14.60;99.90;;;;;;5030087;28;20611;-81
2022/10/12 10:56:45;;;;;;;8.33;4.03;;;14.60;99.90;;;;;;5021027;28;20644;-82
2022/10/12 10:59:18;;;;;;;5.73;3.60;;;14.70;99.90;;;;;;5028930;28;20709;-81
2022/10/12 11:01:52;;;;;;;4.67;4.00;;;14.70;99.90;;;;;;5025556;28;20734;-81
2022/10/12 11:04:22;;;;;;;10.83;5.80;;;14.80;99.90;;;;;;5025783;28;20616;-81
2022/10/12 11:06:54;;;;;;;6.47;4.43;;;14.80;99.90;;;;;;5009704;28;20993;-80
2022/10/12 11:09:28;;;;;;;5.33;4.10;;;14.80;99.90;;;;;;5022955;28;20634;-80
2022/10/12 11:12:02;;;;;;;5.70;3.67;;;14.80;99.90;;;;;;5029435;28;20929;-81
2022/10/12 11:14:35;;;;;;;4.30;3.90;;;14.90;99.90;;;;;;5029345;28;20623;-82
2022/10/12 11:17:05;;;;;;;5.33;3.77;;;14.90;99.90;;;;;;5029013;28;20623;-82
2022/10/12 11:19:37;;;;;;;6.03;2.97;;;14.90;99.90;;;;;;5028962;28;21325;-81
2022/10/12 11:22:12;;;;;;;5.67;4.23;;;14.90;99.90;;;;;;5028493;28;21035;-82
2022/10/12 11:24:43;;;;;;;5.27;4.07;;;15.00;99.90;;;;;;5019707;28;20619;-81
2022/10/12 11:27:15;;;;;;;6.43;4.00;;;15.00;99.90;;;;;;5020599;28;20619;-81
2022/10/12 11:30:03;;;;;;;9.30;5.13;;;15.00;99.90;;;;;;5021244;28;20781;-80
2022/10/12 11:32:34;;;;;;;6.93;3.87;;;15.00;99.90;;;;;;5024513;28;21443;-82
2022/10/12 11:35:13;;;;;;;7.30;4.20;;;15.10;99.90;;;;;;5028353;28;20618;-81
2022/10/12 11:37:52;;;;;;;6.60;4.30;;;15.10;99.90;;;;;;5028084;28;20626;-82
2022/10/12 11:40:25;;;;;;;6.73;3.93;;;15.20;99.90;;;;;;5012763;28;20662;-81
2022/10/12 11:42:53;;;;;;;6.97;5.10;;;15.20;99.90;;;;;;5021434;28;20669;-81
2022/10/12 11:45:25;;;;;;;5.37;3.40;;;15.20;99.90;;;;;;5028152;28;20627;-83
2022/10/12 11:47:55;;;;;;;4.43;3.10;;;15.30;99.90;;;;;;5035172;28;20641;-81
2022/10/12 11:50:30;;;;;;;3.83;3.53;;;15.30;99.90;;;;;;5015354;28;20608;-82
2022/10/12 11:53:02;;;;;;;4.93;3.77;;;15.20;99.90;;;;;;5009512;28;20726;-81
2022/10/12 11:55:45;;;;;;;7.53;4.80;;;15.10;99.90;;;;;;5012558;28;21374;-82
2022/10/12 11:58:18;;;;;;;3.60;3.27;;;15.20;99.90;;;;;;5028027;28;21235;-82
2022/10/12 12:01:12;;;;;;;5.63;3.73;;;15.20;99.90;;;;;;5028924;28;20643;-82
2022/10/12 12:04:23;;;;;;;5.10;3.33;;;15.20;99.90;;;;;;5028026;28;20635;-82
2022/10/12 12:06:56;;;;;;;3.20;2.40;;;15.20;99.90;;;;;;4983951;28;20658;-82
2022/10/12 12:09:34;;;;;;;2.70;2.50;;;15.30;99.90;;;;;;5008713;28;20620;-82
2022/10/12 12:12:10;;;;;;;6.20;3.60;;;15.30;99.90;;;;;;5020886;28;20619;-81
2022/10/12 12:15:07;;;;;;;4.10;2.80;;;15.40;99.90;;;;;;5027843;28;20630;-82
2022/10/12 12:17:36;;;;;;;3.50;3.20;;;15.50;99.90;;;;;;5004553;28;20645;-82
2022/10/12 12:20:29;;;;;;;5.67;3.40;;;15.40;99.90;;;;;;5028205;28;20761;-82
2022/10/12 12:22:56;;;;;;;3.37;3.07;;;15.40;99.90;;;;;;5027544;28;20627;-82
2022/10/12 12:25:31;;;;;;;3.40;2.93;;;15.50;99.90;;;;;;5028419;28;20734;-82
2022/10/12 12:27:59;;;;;;;5.30;3.90;;;15.40;99.90;;;;;;5014511;28;20634;-82
2022/10/12 12:30:55;;;;;;;7.00;3.00;;;15.40;99.90;;;;;;5024093;28;20662;-83
2022/10/12 12:33:29;;;;;;;4.17;3.17;;;15.40;99.90;;;;;;5028247;28;20631;-81
2022/10/12 12:35:59;;;;;;;3.43;3.10;;;15.40;99.90;;;;;;5028246;28;20794;-82
2022/10/12 12:38:30;;;;;;;3.70;3.40;;;15.50;99.90;;;;;;5027042;28;20627;-81
2022/10/12 12:41:05;;;;;;;5.37;3.50;;;15.40;99.90;;;;;;5027740;28;20699;-82
2022/10/12 12:44:01;;;;;;;5.10;3.37;;;15.50;99.90;;;;;;5028078;28;20614;-81
2022/10/12 12:47:07;;;;;;;3.93;3.50;;;15.50;99.90;;;;;;5027523;28;20631;-83
2022/10/12 12:49:43;;;;;;;3.33;3.03;;;15.50;99.90;;;;;;5012148;28;20734;-82
2022/10/12 12:52:29;;;;;;;2.50;2.07;;;15.50;99.90;;;;;;5028351;28;20634;-81
2022/10/12 12:55:27;;;;;;;3.90;2.57;;;15.60;99.90;;;;;;5028301;28;20630;-81
2022/10/12 12:58:07;;;;;;;6.00;4.37;;;15.60;99.90;;;;;;5008634;28;20686;-82
2022/10/12 13:00:45;;;;;;;3.30;3.00;;;15.70;99.90;;;;;;5027280;28;20665;-83
2022/10/12 13:03:36;;;;;;;2.87;2.60;;;15.60;99.90;;;;;;5028021;28;20615;-82
2022/10/12 13:07:03;;;;;;;2.43;2.23;;;15.60;99.90;;;;;;5028058;28;20649;-82